• Join FlightAware (Why Join?)
  • Login
  • US Flag 
11:18PM EST


 

Airport Tracker/Info


-or-


 

Live Flight TrackerFlight Track Log ✈ SWA2521 ✈ 22-Jun-2013 ✈ KLAX - KLAS

Flight Track Log - Related Links

Times and Time Zones

All times are in EDT time to prevent confusion due to time zone crossing. See the SWA2521 flight status page for this flight to view local times or setup timezone preferences in your user account.

Time Position Orientation Groundspeed Altitude Reporting Facility
EDT Latitude Longitude Course Direction KTS MPH feet Rate Location/Type
09:43PM 33.9275 -118.5128 251° West 213 245 5,300  Level Los Angeles Center
09:44PM 33.8994 -118.4681 127° Southeast 245 282 9,000 3,000 Climbing Los Angeles Center
09:45PM 33.9531 -118.4047 44° Northeast 266 306 11,500 2,520 Climbing Los Angeles Center
09:46PM 34.0019 -118.3100 58° Northeast 319 367 14,200 2,580 Climbing Los Angeles Center
09:47PM 34.0658 -118.2003 55° Northeast 382 440 16,800 2,760 Climbing Los Angeles Center
09:48PM 34.1308 -118.0844 56° Northeast 406 467 20,000 2,820 Climbing Los Angeles Center
09:49PM 34.2000 -117.9617 56° Northeast 431 496 22,700 1,920 Climbing Los Angeles Center
09:50PM 34.2711 -117.8353 56° Northeast 449 517 24,000 600 Climbing Los Angeles Center
09:51PM 34.3433 -117.7083 55° Northeast 456 525 24,000 300 Level Los Angeles Center
09:53PM 34.4219 -117.5764 54° Northeast 457 526 24,700 480 Climbing Los Angeles Center
09:54PM 34.4811 -117.4756 55° Northeast 460 529 25,000 120 Climbing Los Angeles Center
09:55PM 34.5689 -117.3253 55° Northeast 459 528 25,000  Level Los Angeles Center
09:56PM 34.6569 -117.1733 55° Northeast 462 532 25,000  Level Los Angeles Center
09:57PM 34.7300 -117.0475 55° Northeast 461 531 25,000  Level Los Angeles Center
09:58PM 34.8033 -116.9206 55° Northeast 462 532 25,000 -540 Level Los Angeles Center
09:59PM 34.8758 -116.7933 55° Northeast 460 529 24,000 -540 Descending Los Angeles Center
10:00PM 34.9481 -116.6692 55° Northeast 454 522 24,000  Level Los Angeles Center
10:01PM 35.0192 -116.5456 55° Northeast 448 516 24,000  Level Los Angeles Center
10:02PM 35.0900 -116.4217 55° Northeast 449 517 24,000  Level Los Angeles Center
10:03PM 35.1906 -116.2911 47° Northeast 442 509 24,000 -180 Level Los Angeles Center
10:04PM 35.2781 -116.1819 46° Northeast 448 516 23,700 -1,080 Descending Los Angeles Center
10:05PM 35.3569 -116.0792 47° Northeast 426 490 21,700 -2,160 Descending Los Angeles Center
10:06PM 35.4494 -115.9622 46° Northeast 405 466 18,900 -2,520 Descending Los Angeles Center
10:07PM 35.5267 -115.8647 46° Northeast 397 457 16,600 -2,460 Descending Los Angeles Center
10:08PM 35.5800 -115.8008 44° Northeast 380 437 15,000 -1,980 Descending Los Angeles Center
10:09PM 35.6619 -115.7006 45° Northeast 360 414 13,100 -900 Descending Los Angeles Center
10:10PM 35.7281 -115.6158 46° Northeast 323 372 13,100  Level Los Angeles Center
10:11PM 35.8178 -115.5711 22° Northeast 295 339 13,100  Level Los Angeles Center
10:12PM 35.8800 -115.5694 North 308 354 13,100  Level Los Angeles Center
10:12PM 35.9256 -115.5644 North 304 350 13,100  Level Los Angeles Center
10:13PM 35.9703 -115.5483 16° North 305 351 13,100 -420 Level Los Angeles Center
10:13PM 35.9875 -115.5119 60° Northeast 307 353 12,700 -1,320 Descending Los Angeles Center
10:14PM 36.0061 -115.4542 68° East 305 351 11,800 -1,500 Descending Los Angeles Center
10:14PM 36.0178 -115.4161 69° East 304 350 11,200 -780 Descending Los Angeles Center
10:15PM 36.0286 -115.3381 80° East 278 320 10,900 -960 Descending Los Angeles Center
10:16PM 36.0211 -115.2528 96° East 276 318 9,700 -1,380 Descending Los Angeles Center
10:17PM 36.0150 -115.1458 94° East 273 314 8,200 -840 Descending Los Angeles Center
10:18PM 36.0083 -115.0550 95° East 268 308 8,000 -300 Descending Los Angeles Center
10:19PM 36.0050 -114.9817 93° East 208 239 7,600 -900 Descending Los Angeles Center
10:20PM 36.0253 -114.9350 62° Northeast 209 241 6,300 -1,500 Descending Los Angeles Center
10:21PM 36.0756 -114.9581 340° North 199 229 4,800 -1,320 Descending Los Angeles Center
10:22PM 36.0728 -115.0336 267° West 188 216 3,500 -1,020 Descending Los Angeles Center
10:23PM 36.0733 -115.0761 271° West 165 190 2,900 -720 Descending Los Angeles Center
10:24PM 36.0742 -115.1003 272° West 175 201 2,500 -720 Descending Los Angeles Center
10:26PM 36.0667 -115.1500 270° West  Level FlightAware Approximate